PWSweather.com
Personal Weather Stations
Station Observations
IROGLAN40
AalgaardNO 4330

AalgaardNO 4330

Lat: 58.773, Lon: 5.846

Elevation: 326

Station Type: Davis Vanatge Pro2

www.mavahome.com

High Low Average
Temperature 40.0°F4.4°C 16.0°F-8.9°C 27.1°F-2.7°C
Dew Point 20.8°F-6.2°C 0.7°F-17.4°C 8.6°F-13.0°C
Winds 5.8 mph 9.3 kmh Calm Calm 1.0 mph S1.6 kmh S
Wind Gusts 10.4 mph16.7 kmh -- 1.0 mph1.6 kmh
Humidity 78% 26% 47%
Pressure 30.45 in1031.2 mb 30.24 in1024.0 mb -
Precipitation 0.00 in0.0 mm - -
Hour Temp Dew Point Humidity Winds Wind Gusts Pressure Precip Precip Rate Daily Precip Total
12:00 AM 17.9°F-7.8°C 5.2°F-14.9°C 57% Calm Calm -- 30.45 in1031.2 mb - 0.00 in0.0 mm 0.00 in0.0 mm
12:10 AM 17.6°F-8.0°C 4.2°F-15.4°C 55% Calm Calm -- 30.45 in1031.2 mb - 0.00 in0.0 mm 0.00 in0.0 mm
12:20 AM 17.7°F-7.9°C 4.6°F-15.2°C 56% Calm Calm -- 30.45 in1031.2 mb - 0.00 in0.0 mm 0.00 in0.0 mm
12:30 AM 17.6°F-8.0°C 4.9°F-15.1°C 57% Calm Calm -- 30.45 in1031.2 mb - 0.00 in0.0 mm 0.00 in0.0 mm
12:40 AM 17.2°F-8.2°C 4.6°F-15.2°C 57% Calm Calm -- 30.45 in1031.2 mb - 0.00 in0.0 mm 0.00 in0.0 mm
12:50 AM 17.5°F-8.1°C 4.5°F-15.3°C 56% Calm Calm -- 30.45 in1031.2 mb - 0.00 in0.0 mm 0.00 in0.0 mm
01:00 AM 17.6°F-8.0°C 4.2°F-15.4°C 55% Calm Calm -- 30.45 in1031.2 mb - 0.00 in0.0 mm 0.00 in0.0 mm
01:10 AM 17.4°F-8.1°C 4.3°F-15.4°C 56% Calm Calm -- 30.45 in1031.2 mb - 0.00 in0.0 mm 0.00 in0.0 mm
01:20 AM 16.8°F-8.4°C 4.6°F-15.2°C 58% Calm Calm -- 30.45 in1031.2 mb - 0.00 in0.0 mm 0.00 in0.0 mm
01:30 AM 16.5°F-8.6°C 4.6°F-15.2°C 59% Calm Calm -- 30.45 in1031.2 mb - 0.00 in0.0 mm 0.00 in0.0 mm
01:40 AM 16.3°F-8.7°C 4.1°F-15.5°C 58% Calm Calm -- 30.45 in1031.2 mb - 0.00 in0.0 mm 0.00 in0.0 mm
01:50 AM 16.6°F-8.6°C 4.0°F-15.6°C 57% Calm Calm -- 30.45 in1031.2 mb - 0.00 in0.0 mm 0.00 in0.0 mm
02:00 AM 16.9°F-8.4°C 3.9°F-15.6°C 56% Calm Calm -- 30.45 in1031.2 mb - 0.00 in0.0 mm 0.00 in0.0 mm
02:10 AM 16.6°F-8.6°C 4.0°F-15.6°C 57% Calm Calm -- 30.45 in1031.2 mb - 0.00 in0.0 mm 0.00 in0.0 mm
02:20 AM 16.7°F-8.5°C 3.7°F-15.7°C 56% Calm Calm -- 30.45 in1031.2 mb - 0.00 in0.0 mm 0.00 in0.0 mm
02:30 AM 16.8°F-8.4°C 3.4°F-15.9°C 55% Calm Calm -- 30.45 in1031.2 mb - 0.00 in0.0 mm 0.00 in0.0 mm
02:40 AM 16.3°F-8.7°C 3.7°F-15.7°C 57% Calm Calm -- 30.45 in1031.2 mb - 0.00 in0.0 mm 0.00 in0.0 mm
02:50 AM 16.0°F-8.9°C 3.0°F-16.1°C 56% Calm Calm -- 30.45 in1031.2 mb - 0.00 in0.0 mm 0.00 in0.0 mm
03:00 AM 16.5°F-8.6°C 3.1°F-16.1°C 55% Calm Calm -- 30.45 in1031.2 mb - 0.00 in0.0 mm 0.00 in0.0 mm
03:10 AM 17.6°F-8.0°C 3.3°F-15.9°C 53% Calm Calm -- 30.44 in1030.8 mb - 0.00 in0.0 mm 0.00 in0.0 mm
03:20 AM 17.1°F-8.3°C 3.3°F-15.9°C 54% Calm Calm -- 30.44 in1030.8 mb - 0.00 in0.0 mm 0.00 in0.0 mm
03:30 AM 16.6°F-8.6°C 2.4°F-16.4°C 53% Calm Calm -- 30.44 in1030.8 mb - 0.00 in0.0 mm 0.00 in0.0 mm
03:40 AM 16.9°F-8.4°C 2.3°F-16.5°C 52% Calm Calm -- 30.44 in1030.8 mb - 0.00 in0.0 mm 0.00 in0.0 mm
03:50 AM 17.0°F-8.3°C 2.0°F-16.7°C 51% Calm Calm -- 30.43 in1030.5 mb - 0.00 in0.0 mm 0.00 in0.0 mm
04:00 AM 16.9°F-8.4°C 1.9°F-16.7°C 51% Calm Calm -- 30.43 in1030.5 mb - 0.00 in0.0 mm 0.00 in0.0 mm
04:10 AM 17.0°F-8.3°C 2.0°F-16.7°C 51% Calm Calm -- 30.43 in1030.5 mb - 0.00 in0.0 mm 0.00 in0.0 mm
04:20 AM 16.9°F-8.4°C 2.3°F-16.5°C 52% Calm Calm -- 30.43 in1030.5 mb - 0.00 in0.0 mm 0.00 in0.0 mm
04:30 AM 17.1°F-8.3°C 2.5°F-16.4°C 52% Calm Calm -- 30.42 in1030.1 mb - 0.00 in0.0 mm 0.00 in0.0 mm
04:40 AM 17.4°F-8.1°C 2.4°F-16.4°C 51% Calm Calm -- 30.42 in1030.1 mb - 0.00 in0.0 mm 0.00 in0.0 mm
04:50 AM 16.8°F-8.4°C 2.2°F-16.6°C 52% Calm Calm -- 30.43 in1030.5 mb - 0.00 in0.0 mm 0.00 in0.0 mm
05:00 AM 16.8°F-8.4°C 1.3°F-17.1°C 50% Calm Calm -- 30.42 in1030.1 mb - 0.00 in0.0 mm 0.00 in0.0 mm
05:10 AM 17.1°F-8.3°C 0.8°F-17.3°C 48% Calm Calm -- 30.42 in1030.1 mb - 0.00 in0.0 mm 0.00 in0.0 mm
05:20 AM 17.1°F-8.3°C 1.6°F-16.9°C 50% Calm Calm -- 30.42 in1030.1 mb - 0.00 in0.0 mm 0.00 in0.0 mm
05:30 AM 17.1°F-8.3°C 1.2°F-17.1°C 49% Calm Calm -- 30.42 in1030.1 mb - 0.00 in0.0 mm 0.00 in0.0 mm
05:40 AM 17.1°F-8.3°C 1.2°F-17.1°C 49% Calm Calm -- 30.42 in1030.1 mb - 0.00 in0.0 mm 0.00 in0.0 mm
05:50 AM 17.2°F-8.2°C 1.3°F-17.1°C 49% Calm Calm -- 30.42 in1030.1 mb - 0.00 in0.0 mm 0.00 in0.0 mm
06:00 AM 17.1°F-8.3°C 0.8°F-17.3°C 48% Calm Calm -- 30.43 in1030.5 mb - 0.00 in0.0 mm 0.00 in0.0 mm
06:10 AM 17.0°F-8.3°C 1.1°F-17.2°C 49% Calm Calm -- 30.43 in1030.5 mb - 0.00 in0.0 mm 0.00 in0.0 mm
06:20 AM 16.7°F-8.5°C 1.7°F-16.8°C 51% Calm Calm -- 30.43 in1030.5 mb - 0.00 in0.0 mm 0.00 in0.0 mm
06:30 AM 16.2°F-8.8°C 1.6°F-16.9°C 52% Calm Calm -- 30.43 in1030.5 mb - 0.00 in0.0 mm 0.00 in0.0 mm
06:40 AM 16.8°F-8.4°C 0.9°F-17.3°C 49% Calm Calm -- 30.43 in1030.5 mb - 0.00 in0.0 mm 0.00 in0.0 mm
06:50 AM 17.1°F-8.3°C 0.7°F-17.4°C 48% Calm Calm -- 30.43 in1030.5 mb - 0.00 in0.0 mm 0.00 in0.0 mm
07:00 AM 17.1°F-8.3°C 1.2°F-17.1°C 49% Calm Calm -- 30.43 in1030.5 mb - 0.00 in0.0 mm 0.00 in0.0 mm
07:10 AM 17.1°F-8.3°C 1.2°F-17.1°C 49% Calm Calm -- 30.43 in1030.5 mb - 0.00 in0.0 mm 0.00 in0.0 mm
07:20 AM 17.8°F-7.9°C 1.4°F-17.0°C 48% Calm Calm -- 30.43 in1030.5 mb - 0.00 in0.0 mm 0.00 in0.0 mm
07:30 AM 18.5°F-7.5°C 1.6°F-16.9°C 47% Calm Calm -- 30.43 in1030.5 mb - 0.00 in0.0 mm 0.00 in0.0 mm
07:40 AM 19.1°F-7.2°C 1.7°F-16.8°C 46% Calm Calm -- 30.43 in1030.5 mb - 0.00 in0.0 mm 0.00 in0.0 mm
07:50 AM 19.9°F-6.7°C 1.9°F-16.7°C 45% Calm Calm -- 30.43 in1030.5 mb - 0.00 in0.0 mm 0.00 in0.0 mm
08:00 AM 20.9°F-6.2°C 2.4°F-16.4°C 44% Calm Calm -- 30.43 in1030.5 mb - 0.00 in0.0 mm 0.00 in0.0 mm
08:10 AM 20.7°F-6.3°C 1.7°F-16.8°C 43% Calm Calm -- 30.43 in1030.5 mb - 0.00 in0.0 mm 0.00 in0.0 mm
08:20 AM 21.9°F-5.6°C 5.2°F-14.9°C 48% Calm Calm -- 30.43 in1030.5 mb - 0.00 in0.0 mm 0.00 in0.0 mm
08:30 AM 23.5°F-4.7°C 3.7°F-15.7°C 42% Calm Calm -- 30.43 in1030.5 mb - 0.00 in0.0 mm 0.00 in0.0 mm
08:40 AM 24.6°F-4.1°C 5.7°F-14.6°C 44% Calm Calm -- 30.43 in1030.5 mb - 0.00 in0.0 mm 0.00 in0.0 mm
08:50 AM 25.1°F-3.8°C 7.2°F-13.8°C 46% Calm Calm -- 30.43 in1030.5 mb - 0.00 in0.0 mm 0.00 in0.0 mm
09:00 AM 25.8°F-3.4°C 6.8°F-14.0°C 44% Calm Calm -- 30.43 in1030.5 mb - 0.00 in0.0 mm 0.00 in0.0 mm
09:10 AM 28.0°F-2.2°C 8.3°F-13.2°C 43% Calm Calm -- 30.43 in1030.5 mb - 0.00 in0.0 mm 0.00 in0.0 mm
09:20 AM 27.8°F-2.3°C 5.4°F-14.8°C 38% Calm Calm -- 30.43 in1030.5 mb - 0.00 in0.0 mm 0.00 in0.0 mm
09:30 AM 27.7°F-2.4°C 4.8°F-15.1°C 37% Calm Calm -- 30.43 in1030.5 mb - 0.00 in0.0 mm 0.00 in0.0 mm
09:40 AM 28.2°F-2.1°C 5.8°F-14.6°C 38% Calm Calm -- 30.43 in1030.5 mb - 0.00 in0.0 mm 0.00 in0.0 mm
09:50 AM 28.2°F-2.1°C 4.6°F-15.2°C 36% Calm Calm -- 30.43 in1030.5 mb - 0.00 in0.0 mm 0.00 in0.0 mm
10:00 AM 29.4°F-1.4°C 5.0°F-15.0°C 35% Calm Calm -- 30.43 in1030.5 mb - 0.00 in0.0 mm 0.00 in0.0 mm
10:10 AM 30.6°F-0.8°C 5.5°F-14.7°C 34% Calm Calm -- 30.43 in1030.5 mb - 0.00 in0.0 mm 0.00 in0.0 mm
10:20 AM 30.5°F-0.8°C 6.1°F-14.4°C 35% Calm Calm -- 30.43 in1030.5 mb - 0.00 in0.0 mm 0.00 in0.0 mm
10:30 AM 30.7°F-0.7°C 5.6°F-14.7°C 34% Calm Calm -- 30.43 in1030.5 mb - 0.00 in0.0 mm 0.00 in0.0 mm
10:40 AM 31.9°F-0.1°C 7.3°F-13.7°C 35% Calm Calm -- 30.43 in1030.5 mb - 0.00 in0.0 mm 0.00 in0.0 mm
10:50 AM 32.3°F0.2°C 6.3°F-14.3°C 33% Calm Calm -- 30.42 in1030.1 mb - 0.00 in0.0 mm 0.00 in0.0 mm
11:00 AM 32.5°F0.3°C 4.4°F-15.3°C 30% Calm Calm -- 30.42 in1030.1 mb - 0.00 in0.0 mm 0.00 in0.0 mm
11:10 AM 32.4°F0.2°C 4.3°F-15.4°C 30% Calm Calm -- 30.42 in1030.1 mb - 0.00 in0.0 mm 0.00 in0.0 mm
11:20 AM 32.2°F0.1°C 4.9°F-15.1°C 31% Calm Calm -- 30.42 in1030.1 mb - 0.00 in0.0 mm 0.00 in0.0 mm
11:30 AM 33.1°F0.6°C 5.7°F-14.6°C 31% Calm Calm -- 30.42 in1030.1 mb - 0.00 in0.0 mm 0.00 in0.0 mm
11:40 AM 33.7°F0.9°C 4.8°F-15.1°C 29% Calm Calm -- 30.41 in1029.8 mb - 0.00 in0.0 mm 0.00 in0.0 mm
11:50 AM 33.9°F1.1°C 5.7°F-14.6°C 30% Calm Calm -- 30.41 in1029.8 mb - 0.00 in0.0 mm 0.00 in0.0 mm
12:00 PM 34.4°F1.3°C 6.9°F-13.9°C 31% Calm Calm -- 30.41 in1029.8 mb - 0.00 in0.0 mm 0.00 in0.0 mm
12:10 PM 34.8°F1.6°C 6.5°F-14.2°C 30% Calm Calm -- 30.41 in1029.8 mb - 0.00 in0.0 mm 0.00 in0.0 mm
12:20 PM 34.7°F1.5°C 6.3°F-14.3°C 30% Calm Calm -- 30.40 in1029.5 mb - 0.00 in0.0 mm 0.00 in0.0 mm
12:30 PM 34.4°F1.3°C 6.1°F-14.4°C 30% Calm Calm -- 30.40 in1029.5 mb - 0.00 in0.0 mm 0.00 in0.0 mm
12:40 PM 35.3°F1.8°C 6.9°F-13.9°C 30% Calm Calm -- 30.39 in1029.1 mb - 0.00 in0.0 mm 0.00 in0.0 mm
12:50 PM 35.0°F1.7°C 7.3°F-13.7°C 31% Calm Calm 3.5 mph5.6 kmh 30.39 in1029.1 mb - 0.00 in0.0 mm 0.00 in0.0 mm
01:00 PM 38.2°F3.4°C 7.1°F-13.8°C 27% 4.6 mph W7.4 kmh W 5.8 mph9.3 kmh 30.38 in1028.8 mb - 0.00 in0.0 mm 0.00 in0.0 mm
01:10 PM 38.9°F3.8°C 7.7°F-13.5°C 27% 2.3 mph WNW3.7 kmh WNW 4.6 mph7.4 kmh 30.38 in1028.8 mb - 0.00 in0.0 mm 0.00 in0.0 mm
01:20 PM 39.9°F4.4°C 9.4°F-12.6°C 28% 1.2 mph W1.9 kmh W 2.3 mph3.7 kmh 30.38 in1028.8 mb - 0.00 in0.0 mm 0.00 in0.0 mm
01:30 PM 39.6°F4.2°C 7.5°F-13.6°C 26% 1.2 mph W1.9 kmh W 3.5 mph5.6 kmh 30.37 in1028.4 mb - 0.00 in0.0 mm 0.00 in0.0 mm
01:40 PM 39.7°F4.3°C 9.2°F-12.7°C 28% 3.5 mph W5.6 kmh W 6.9 mph11.1 kmh 30.37 in1028.4 mb - 0.00 in0.0 mm 0.00 in0.0 mm
01:50 PM 40.0°F4.4°C 7.9°F-13.4°C 26% 3.5 mph WNW5.6 kmh WNW 5.8 mph9.3 kmh 30.36 in1028.1 mb - 0.00 in0.0 mm 0.00 in0.0 mm
02:00 PM 39.8°F4.3°C 10.1°F-12.2°C 29% 3.5 mph WSW5.6 kmh WSW 6.9 mph11.1 kmh 30.36 in1028.1 mb - 0.00 in0.0 mm 0.00 in0.0 mm
02:10 PM 39.4°F4.1°C 8.1°F-13.3°C 27% 5.8 mph NW9.3 kmh NW 9.2 mph14.8 kmh 30.35 in1027.8 mb - 0.00 in0.0 mm 0.00 in0.0 mm
02:20 PM 39.6°F4.2°C 9.9°F-12.3°C 29% 3.5 mph W5.6 kmh W 3.5 mph5.6 kmh 30.35 in1027.8 mb - 0.00 in0.0 mm 0.00 in0.0 mm
02:30 PM 39.7°F4.3°C 10.7°F-11.8°C 30% 5.8 mph NW9.3 kmh NW 8.1 mph13.0 kmh 30.35 in1027.8 mb - 0.00 in0.0 mm 0.00 in0.0 mm
02:40 PM 39.5°F4.2°C 9.8°F-12.3°C 29% 4.6 mph WNW7.4 kmh WNW 5.8 mph9.3 kmh 30.34 in1027.4 mb - 0.00 in0.0 mm 0.00 in0.0 mm
02:50 PM 39.3°F4.1°C 11.2°F-11.6°C 31% 4.6 mph W7.4 kmh W 10.4 mph16.7 kmh 30.34 in1027.4 mb - 0.00 in0.0 mm 0.00 in0.0 mm
03:00 PM 38.4°F3.6°C 12.4°F-10.9°C 34% 3.5 mph WNW5.6 kmh WNW 6.9 mph11.1 kmh 30.33 in1027.1 mb - 0.00 in0.0 mm 0.00 in0.0 mm
03:10 PM 39.0°F3.9°C 13.0°F-10.6°C 34% 5.8 mph W9.3 kmh W 9.2 mph14.8 kmh 30.33 in1027.1 mb - 0.00 in0.0 mm 0.00 in0.0 mm
03:20 PM 38.8°F3.8°C 10.7°F-11.8°C 31% 5.8 mph W9.3 kmh W 8.1 mph13.0 kmh 30.33 in1027.1 mb - 0.00 in0.0 mm 0.00 in0.0 mm
03:30 PM 39.3°F4.1°C 9.7°F-12.4°C 29% 4.6 mph W7.4 kmh W 6.9 mph11.1 kmh 30.32 in1026.8 mb - 0.00 in0.0 mm 0.00 in0.0 mm
03:40 PM 38.9°F3.8°C 7.7°F-13.5°C 27% 5.8 mph WNW9.3 kmh WNW 9.2 mph14.8 kmh 30.32 in1026.8 mb - 0.00 in0.0 mm 0.00 in0.0 mm
03:50 PM 39.1°F3.9°C 7.9°F-13.4°C 27% 4.6 mph W7.4 kmh W 5.8 mph9.3 kmh 30.31 in1026.4 mb - 0.00 in0.0 mm 0.00 in0.0 mm
04:00 PM 39.7°F4.3°C 10.8°F-11.8°C 30% 3.5 mph W5.6 kmh W 5.8 mph9.3 kmh 30.31 in1026.4 mb - 0.00 in0.0 mm 0.00 in0.0 mm
04:10 PM 38.9°F3.8°C 10.8°F-11.8°C 31% 4.6 mph WNW7.4 kmh WNW 6.9 mph11.1 kmh 30.31 in1026.4 mb - 0.00 in0.0 mm 0.00 in0.0 mm
04:20 PM 39.1°F3.9°C 12.4°F-10.9°C 33% 5.8 mph WNW9.3 kmh WNW 8.1 mph13.0 kmh 30.31 in1026.4 mb - 0.00 in0.0 mm 0.00 in0.0 mm
04:30 PM 38.9°F3.8°C 12.8°F-10.7°C 34% 5.8 mph WNW9.3 kmh WNW 6.9 mph11.1 kmh 30.31 in1026.4 mb - 0.00 in0.0 mm 0.00 in0.0 mm
04:40 PM 38.8°F3.8°C 12.8°F-10.7°C 34% 3.5 mph W5.6 kmh W 8.1 mph13.0 kmh 30.30 in1026.1 mb - 0.00 in0.0 mm 0.00 in0.0 mm
04:50 PM 38.8°F3.8°C 14.7°F-9.6°C 37% 4.6 mph W7.4 kmh W 5.8 mph9.3 kmh 30.30 in1026.1 mb - 0.00 in0.0 mm 0.00 in0.0 mm
05:00 PM 38.6°F3.7°C 13.9°F-10.1°C 36% 4.6 mph WNW7.4 kmh WNW 6.9 mph11.1 kmh 30.30 in1026.1 mb - 0.00 in0.0 mm 0.00 in0.0 mm
05:10 PM 38.7°F3.7°C 13.4°F-10.3°C 35% 4.6 mph W7.4 kmh W 5.8 mph9.3 kmh 30.30 in1026.1 mb - 0.00 in0.0 mm 0.00 in0.0 mm
05:20 PM 38.3°F3.5°C 13.0°F-10.6°C 35% 4.6 mph WNW7.4 kmh WNW 6.9 mph11.1 kmh 30.30 in1026.1 mb - 0.00 in0.0 mm 0.00 in0.0 mm
05:30 PM 38.3°F3.5°C 13.6°F-10.2°C 36% 3.5 mph W5.6 kmh W 3.5 mph5.6 kmh 30.30 in1026.1 mb - 0.00 in0.0 mm 0.00 in0.0 mm
05:40 PM 38.3°F3.5°C 13.6°F-10.2°C 36% 3.5 mph WNW5.6 kmh WNW 3.5 mph5.6 kmh 30.30 in1026.1 mb - 0.00 in0.0 mm 0.00 in0.0 mm
05:50 PM 38.1°F3.4°C 13.4°F-10.3°C 36% 2.3 mph SW3.7 kmh SW 3.5 mph5.6 kmh 30.29 in1025.7 mb - 0.00 in0.0 mm 0.00 in0.0 mm
06:00 PM 37.1°F2.8°C 13.8°F-10.1°C 38% 2.3 mph WNW3.7 kmh WNW 3.5 mph5.6 kmh 30.29 in1025.7 mb - 0.00 in0.0 mm 0.00 in0.0 mm
06:10 PM 36.1°F2.3°C 14.1°F-9.9°C 40% Calm Calm 1.2 mph1.9 kmh 30.29 in1025.7 mb - 0.00 in0.0 mm 0.00 in0.0 mm
06:20 PM 34.9°F1.6°C 14.6°F-9.7°C 43% 1.2 mph SW1.9 kmh SW 2.3 mph3.7 kmh 30.28 in1025.4 mb - 0.00 in0.0 mm 0.00 in0.0 mm
06:30 PM 34.5°F1.4°C 14.3°F-9.8°C 43% Calm Calm -- 30.28 in1025.4 mb - 0.00 in0.0 mm 0.00 in0.0 mm
06:40 PM 34.0°F1.1°C 14.9°F-9.5°C 45% Calm Calm 1.2 mph1.9 kmh 30.28 in1025.4 mb - 0.00 in0.0 mm 0.00 in0.0 mm
06:50 PM 33.5°F0.8°C 14.9°F-9.5°C 46% Calm Calm -- 30.28 in1025.4 mb - 0.00 in0.0 mm 0.00 in0.0 mm
07:00 PM 32.8°F0.4°C 15.7°F-9.1°C 49% Calm Calm -- 30.28 in1025.4 mb - 0.00 in0.0 mm 0.00 in0.0 mm
07:10 PM 31.9°F-0.1°C 14.9°F-9.5°C 49% Calm Calm -- 30.28 in1025.4 mb - 0.00 in0.0 mm 0.00 in0.0 mm
07:20 PM 31.2°F-0.4°C 15.2°F-9.3°C 51% Calm Calm -- 30.28 in1025.4 mb - 0.00 in0.0 mm 0.00 in0.0 mm
07:30 PM 30.5°F-0.8°C 15.4°F-9.2°C 53% Calm Calm -- 30.28 in1025.4 mb - 0.00 in0.0 mm 0.00 in0.0 mm
07:40 PM 29.9°F-1.2°C 15.3°F-9.3°C 54% Calm Calm -- 30.28 in1025.4 mb - 0.00 in0.0 mm 0.00 in0.0 mm
07:50 PM 29.3°F-1.5°C 15.5°F-9.2°C 56% Calm Calm -- 30.28 in1025.4 mb - 0.00 in0.0 mm 0.00 in0.0 mm
08:00 PM 28.7°F-1.8°C 15.8°F-9.0°C 58% Calm Calm -- 30.28 in1025.4 mb - 0.00 in0.0 mm 0.00 in0.0 mm
08:10 PM 28.3°F-2.1°C 17.0°F-8.3°C 62% Calm Calm -- 30.28 in1025.4 mb - 0.00 in0.0 mm 0.00 in0.0 mm
08:20 PM 27.9°F-2.3°C 17.3°F-8.2°C 64% Calm Calm -- 30.27 in1025.1 mb - 0.00 in0.0 mm 0.00 in0.0 mm
08:30 PM 27.5°F-2.5°C 17.6°F-8.0°C 66% Calm Calm -- 30.27 in1025.1 mb - 0.00 in0.0 mm 0.00 in0.0 mm
08:40 PM 26.9°F-2.8°C 17.4°F-8.1°C 67% Calm Calm -- 30.27 in1025.1 mb - 0.00 in0.0 mm 0.00 in0.0 mm
08:50 PM 26.3°F-3.2°C 17.2°F-8.2°C 68% Calm Calm -- 30.27 in1025.1 mb - 0.00 in0.0 mm 0.00 in0.0 mm
09:00 PM 26.0°F-3.3°C 17.2°F-8.2°C 69% Calm Calm -- 30.27 in1025.1 mb - 0.00 in0.0 mm 0.00 in0.0 mm
09:10 PM 25.8°F-3.4°C 17.7°F-7.9°C 71% Calm Calm -- 30.27 in1025.1 mb - 0.00 in0.0 mm 0.00 in0.0 mm
09:20 PM 25.5°F-3.6°C 17.8°F-7.9°C 72% Calm Calm -- 30.26 in1024.7 mb - 0.00 in0.0 mm 0.00 in0.0 mm
09:30 PM 25.4°F-3.7°C 18.0°F-7.8°C 73% Calm Calm -- 30.26 in1024.7 mb - 0.00 in0.0 mm 0.00 in0.0 mm
09:40 PM 25.4°F-3.7°C 18.3°F-7.6°C 74% Calm Calm 1.2 mph1.9 kmh 30.26 in1024.7 mb - 0.00 in0.0 mm 0.00 in0.0 mm
09:50 PM 25.3°F-3.7°C 18.2°F-7.7°C 74% Calm Calm 2.3 mph3.7 kmh 30.25 in1024.4 mb - 0.00 in0.0 mm 0.00 in0.0 mm
10:00 PM 25.2°F-3.8°C 18.4°F-7.6°C 75% 1.2 mph SW1.9 kmh SW 2.3 mph3.7 kmh 30.25 in1024.4 mb - 0.00 in0.0 mm 0.00 in0.0 mm
10:10 PM 25.2°F-3.8°C 18.4°F-7.6°C 75% Calm Calm -- 30.25 in1024.4 mb - 0.00 in0.0 mm 0.00 in0.0 mm
10:20 PM 25.2°F-3.8°C 18.7°F-7.4°C 76% Calm Calm -- 30.25 in1024.4 mb - 0.00 in0.0 mm 0.00 in0.0 mm
10:30 PM 24.9°F-3.9°C 18.4°F-7.6°C 76% Calm Calm 2.3 mph3.7 kmh 30.25 in1024.4 mb - 0.00 in0.0 mm 0.00 in0.0 mm
10:40 PM 25.0°F-3.9°C 18.5°F-7.5°C 76% Calm Calm -- 30.25 in1024.4 mb - 0.00 in0.0 mm 0.00 in0.0 mm
10:50 PM 25.0°F-3.9°C 18.5°F-7.5°C 76% 1.2 mph SW1.9 kmh SW 1.2 mph1.9 kmh 30.25 in1024.4 mb - 0.00 in0.0 mm 0.00 in0.0 mm
11:00 PM 25.3°F-3.7°C 19.1°F-7.2°C 77% Calm Calm -- 30.25 in1024.4 mb - 0.00 in0.0 mm 0.00 in0.0 mm
11:10 PM 25.5°F-3.6°C 19.3°F-7.1°C 77% Calm Calm -- 30.25 in1024.4 mb - 0.00 in0.0 mm 0.00 in0.0 mm
11:20 PM 25.7°F-3.5°C 19.5°F-6.9°C 77% Calm Calm -- 30.25 in1024.4 mb - 0.00 in0.0 mm 0.00 in0.0 mm
11:30 PM 26.0°F-3.3°C 20.1°F-6.6°C 78% 1.2 mph SW1.9 kmh SW 1.2 mph1.9 kmh 30.24 in1024.0 mb - 0.00 in0.0 mm 0.00 in0.0 mm
11:40 PM 26.7°F-2.9°C 20.8°F-6.2°C 78% Calm Calm -- 30.24 in1024.0 mb - 0.00 in0.0 mm 0.00 in0.0 mm
11:50 PM 26.7°F-2.9°C 20.4°F-6.4°C 77% Calm Calm -- 30.24 in1024.0 mb - 0.00 in0.0 mm 0.00 in0.0 mm